sensor_id;sensor_type;location;lat;lon;timestamp;temperature;humidity
80577;DHT22;69937;52.420;10.538;2023-07-09T00:00:35;21.50;53.40
80577;DHT22;69937;52.420;10.538;2023-07-09T00:05:35;21.40;53.10
80577;DHT22;69937;52.420;10.538;2023-07-09T00:10:36;21.50;53.00
80577;DHT22;69937;52.420;10.538;2023-07-09T00:15:37;21.40;52.80
80577;DHT22;69937;52.420;10.538;2023-07-09T00:20:37;21.40;52.90
80577;DHT22;69937;52.420;10.538;2023-07-09T00:25:38;21.30;53.10
80577;DHT22;69937;52.420;10.538;2023-07-09T00:30:38;21.20;53.30
80577;DHT22;69937;52.420;10.538;2023-07-09T00:35:43;21.10;53.70
80577;DHT22;69937;52.420;10.538;2023-07-09T00:41:05;21.00;53.70
80577;DHT22;69937;52.420;10.538;2023-07-09T00:51:29;20.90;54.10
80577;DHT22;69937;52.420;10.538;2023-07-09T00:56:49;20.90;54.00
80577;DHT22;69937;52.420;10.538;2023-07-09T01:01:53;20.80;54.30
80577;DHT22;69937;52.420;10.538;2023-07-09T01:06:55;20.70;54.60
80577;DHT22;69937;52.420;10.538;2023-07-09T01:11:58;20.60;55.10
80577;DHT22;69937;52.420;10.538;2023-07-09T01:17:05;20.50;55.60
80577;DHT22;69937;52.420;10.538;2023-07-09T01:22:08;20.40;56.00
80577;DHT22;69937;52.420;10.538;2023-07-09T01:27:11;20.30;56.90
80577;DHT22;69937;52.420;10.538;2023-07-09T01:32:13;20.00;56.90
80577;DHT22;69937;52.420;10.538;2023-07-09T01:37:16;19.80;58.20
80577;DHT22;69937;52.420;10.538;2023-07-09T01:42:18;19.70;58.40
80577;DHT22;69937;52.420;10.538;2023-07-09T01:47:22;19.60;59.10
80577;DHT22;69937;52.420;10.538;2023-07-09T01:52:26;19.40;59.40
80577;DHT22;69937;52.420;10.538;2023-07-09T01:57:28;19.20;59.50
80577;DHT22;69937;52.420;10.538;2023-07-09T02:02:35;19.10;59.40
80577;DHT22;69937;52.420;10.538;2023-07-09T02:07:36;18.90;59.80
80577;DHT22;69937;52.420;10.538;2023-07-09T02:12:36;18.70;60.50
80577;DHT22;69937;52.420;10.538;2023-07-09T02:17:37;18.60;60.70
80577;DHT22;69937;52.420;10.538;2023-07-09T02:22:38;18.60;60.30
80577;DHT22;69937;52.420;10.538;2023-07-09T02:27:39;18.60;60.70
80577;DHT22;69937;52.420;10.538;2023-07-09T02:32:39;18.30;60.40
80577;DHT22;69937;52.420;10.538;2023-07-09T02:37:41;18.20;60.80
80577;DHT22;69937;52.420;10.538;2023-07-09T02:42:42;18.30;60.90
80577;DHT22;69937;52.420;10.538;2023-07-09T02:47:43;18.30;60.70
80577;DHT22;69937;52.420;10.538;2023-07-09T02:52:43;18.20;61.00
80577;DHT22;69937;52.420;10.538;2023-07-09T02:57:45;18.00;61.50
80577;DHT22;69937;52.420;10.538;2023-07-09T03:02:45;18.00;61.70
80577;DHT22;69937;52.420;10.538;2023-07-09T03:07:46;18.00;61.40
80577;DHT22;69937;52.420;10.538;2023-07-09T03:12:46;18.00;61.60
80577;DHT22;69937;52.420;10.538;2023-07-09T03:17:47;18.00;61.30
80577;DHT22;69937;52.420;10.538;2023-07-09T03:22:47;17.90;61.90
80577;DHT22;69937;52.420;10.538;2023-07-09T03:27:48;17.80;62.20
80577;DHT22;69937;52.420;10.538;2023-07-09T03:32:49;17.80;62.20
80577;DHT22;69937;52.420;10.538;2023-07-09T03:37:50;17.60;62.40
80577;DHT22;69937;52.420;10.538;2023-07-09T03:42:50;17.60;62.60
80577;DHT22;69937;52.420;10.538;2023-07-09T03:47:51;17.60;62.50
80577;DHT22;69937;52.420;10.538;2023-07-09T03:52:52;17.80;62.50
80577;DHT22;69937;52.420;10.538;2023-07-09T03:57:56;17.80;62.20
80577;DHT22;69937;52.420;10.538;2023-07-09T04:02:56;17.80;62.30
80577;DHT22;69937;52.420;10.538;2023-07-09T04:07:57;17.80;62.20
80577;DHT22;69937;52.420;10.538;2023-07-09T04:12:58;18.00;62.30
80577;DHT22;69937;52.420;10.538;2023-07-09T04:17:58;17.90;62.30
80577;DHT22;69937;52.420;10.538;2023-07-09T04:22:59;18.00;62.60
80577;DHT22;69937;52.420;10.538;2023-07-09T04:27:59;18.00;62.60
80577;DHT22;69937;52.420;10.538;2023-07-09T04:33:00;18.10;62.30
80577;DHT22;69937;52.420;10.538;2023-07-09T04:38:01;18.20;62.50
80577;DHT22;69937;52.420;10.538;2023-07-09T04:43:01;18.30;61.80
80577;DHT22;69937;52.420;10.538;2023-07-09T04:48:02;18.40;62.10
80577;DHT22;69937;52.420;10.538;2023-07-09T04:53:02;18.50;61.40
80577;DHT22;69937;52.420;10.538;2023-07-09T04:58:04;18.70;61.20
80577;DHT22;69937;52.420;10.538;2023-07-09T05:03:04;18.80;60.90
80577;DHT22;69937;52.420;10.538;2023-07-09T05:08:05;19.00;61.50
80577;DHT22;69937;52.420;10.538;2023-07-09T05:13:05;19.20;61.00
80577;DHT22;69937;52.420;10.538;2023-07-09T05:18:06;19.30;60.70
80577;DHT22;69937;52.420;10.538;2023-07-09T05:23:09;19.50;60.70
80577;DHT22;69937;52.420;10.538;2023-07-09T05:28:10;19.70;60.40
80577;DHT22;69937;52.420;10.538;2023-07-09T05:33:10;19.90;60.00
80577;DHT22;69937;52.420;10.538;2023-07-09T05:38:12;20.00;59.20
80577;DHT22;69937;52.420;10.538;2023-07-09T05:43:13;20.20;59.60
80577;DHT22;69937;52.420;10.538;2023-07-09T05:48:13;20.40;59.10
80577;DHT22;69937;52.420;10.538;2023-07-09T05:53:14;20.50;59.00
80577;DHT22;69937;52.420;10.538;2023-07-09T05:58:14;20.70;59.10
80577;DHT22;69937;52.420;10.538;2023-07-09T06:03:15;20.90;58.30
80577;DHT22;69937;52.420;10.538;2023-07-09T06:08:16;21.10;57.90
80577;DHT22;69937;52.420;10.538;2023-07-09T06:13:18;21.30;57.30
80577;DHT22;69937;52.420;10.538;2023-07-09T06:18:21;21.50;57.70
80577;DHT22;69937;52.420;10.538;2023-07-09T06:23:22;21.70;57.00
80577;DHT22;69937;52.420;10.538;2023-07-09T06:28:25;21.90;56.60
80577;DHT22;69937;52.420;10.538;2023-07-09T06:33:27;22.10;56.50
80577;DHT22;69937;52.420;10.538;2023-07-09T06:38:28;22.30;56.90
80577;DHT22;69937;52.420;10.538;2023-07-09T06:43:29;22.50;56.70
80577;DHT22;69937;52.420;10.538;2023-07-09T06:48:30;22.60;56.40
80577;DHT22;69937;52.420;10.538;2023-07-09T06:53:30;22.80;56.20
80577;DHT22;69937;52.420;10.538;2023-07-09T06:58:32;23.10;55.80
80577;DHT22;69937;52.420;10.538;2023-07-09T07:03:33;23.30;55.30
80577;DHT22;69937;52.420;10.538;2023-07-09T07:08:34;23.50;54.20
80577;DHT22;69937;52.420;10.538;2023-07-09T07:13:37;23.70;53.70
80577;DHT22;69937;52.420;10.538;2023-07-09T07:18:38;23.90;54.60
80577;DHT22;69937;52.420;10.538;2023-07-09T07:23:39;24.20;53.70
80577;DHT22;69937;52.420;10.538;2023-07-09T07:28:39;24.40;52.60
80577;DHT22;69937;52.420;10.538;2023-07-09T07:33:41;24.50;53.40
80577;DHT22;69937;52.420;10.538;2023-07-09T07:38:42;24.60;52.90
80577;DHT22;69937;52.420;10.538;2023-07-09T07:43:42;24.70;52.80
80577;DHT22;69937;52.420;10.538;2023-07-09T07:48:43;25.00;53.20
80577;DHT22;69937;52.420;10.538;2023-07-09T07:53:43;25.20;52.30
80577;DHT22;69937;52.420;10.538;2023-07-09T07:58:44;25.30;52.10
80577;DHT22;69937;52.420;10.538;2023-07-09T08:03:45;25.50;52.50
80577;DHT22;69937;52.420;10.538;2023-07-09T08:08:45;25.70;52.00
80577;DHT22;69937;52.420;10.538;2023-07-09T08:13:46;26.00;52.50
80577;DHT22;69937;52.420;10.538;2023-07-09T08:18:46;26.20;50.80
80577;DHT22;69937;52.420;10.538;2023-07-09T08:23:47;26.40;51.10
80577;DHT22;69937;52.420;10.538;2023-07-09T08:28:47;26.60;51.50
80577;DHT22;69937;52.420;10.538;2023-07-09T08:33:48;27.00;49.90
80577;DHT22;69937;52.420;10.538;2023-07-09T08:38:49;27.30;50.90
80577;DHT22;69937;52.420;10.538;2023-07-09T08:49:37;27.70;50.20
80577;DHT22;69937;52.420;10.538;2023-07-09T08:54:39;28.10;49.70
80577;DHT22;69937;52.420;10.538;2023-07-09T08:59:41;28.30;47.50
80577;DHT22;69937;52.420;10.538;2023-07-09T09:04:42;28.50;47.10
80577;DHT22;69937;52.420;10.538;2023-07-09T09:09:49;28.70;47.20
80577;DHT22;69937;52.420;10.538;2023-07-09T09:14:58;29.20;49.30
80577;DHT22;69937;52.420;10.538;2023-07-09T09:20:02;29.60;49.30
80577;DHT22;69937;52.420;10.538;2023-07-09T09:25:20;30.00;48.80
80577;DHT22;69937;52.420;10.538;2023-07-09T09:30:23;30.30;48.40
80577;DHT22;69937;52.420;10.538;2023-07-09T09:35:33;30.80;48.30
80577;DHT22;69937;52.420;10.538;2023-07-09T09:40:35;31.00;46.80
80577;DHT22;69937;52.420;10.538;2023-07-09T09:45:38;31.10;46.50
80577;DHT22;69937;52.420;10.538;2023-07-09T09:50:41;31.40;45.60
80577;DHT22;69937;52.420;10.538;2023-07-09T09:55:44;31.40;45.70
80577;DHT22;69937;52.420;10.538;2023-07-09T10:00:55;31.80;44.80
80577;DHT22;69937;52.420;10.538;2023-07-09T10:05:58;32.00;44.20
80577;DHT22;69937;52.420;10.538;2023-07-09T10:11:19;32.50;42.90
80577;DHT22;69937;52.420;10.538;2023-07-09T10:16:27;32.40;43.70
80577;DHT22;69937;52.420;10.538;2023-07-09T10:21:41;32.80;42.90
80577;DHT22;69937;52.420;10.538;2023-07-09T10:26:49;33.10;42.70
80577;DHT22;69937;52.420;10.538;2023-07-09T10:32:08;33.60;42.50
80577;DHT22;69937;52.420;10.538;2023-07-09T10:42:50;34.00;40.20
80577;DHT22;69937;52.420;10.538;2023-07-09T10:47:59;34.00;40.20
80577;DHT22;69937;52.420;10.538;2023-07-09T10:53:14;34.50;39.10
80577;DHT22;69937;52.420;10.538;2023-07-09T10:58:40;34.80;38.50
80577;DHT22;69937;52.420;10.538;2023-07-09T11:03:50;35.00;38.50
80577;DHT22;69937;52.420;10.538;2023-07-09T11:08:53;35.00;37.10
80577;DHT22;69937;52.420;10.538;2023-07-09T11:13:59;35.10;36.90
80577;DHT22;69937;52.420;10.538;2023-07-09T11:19:03;35.30;37.80
80577;DHT22;69937;52.420;10.538;2023-07-09T11:24:24;35.40;35.80
80577;DHT22;69937;52.420;10.538;2023-07-09T11:29:26;36.00;37.80
80577;DHT22;69937;52.420;10.538;2023-07-09T11:34:28;36.30;36.80
80577;DHT22;69937;52.420;10.538;2023-07-09T11:44:46;36.50;35.70
80577;DHT22;69937;52.420;10.538;2023-07-09T11:54:52;37.10;35.80
80577;DHT22;69937;52.420;10.538;2023-07-09T11:59:52;37.50;35.50
80577;DHT22;69937;52.420;10.538;2023-07-09T12:04:53;38.00;34.60
80577;DHT22;69937;52.420;10.538;2023-07-09T12:09:54;38.00;34.90
80577;DHT22;69937;52.420;10.538;2023-07-09T12:14:55;37.80;34.80
80577;DHT22;69937;52.420;10.538;2023-07-09T12:19:55;37.80;35.40
80577;DHT22;69937;52.420;10.538;2023-07-09T12:24:56;37.70;34.50
80577;DHT22;69937;52.420;10.538;2023-07-09T12:29:57;38.10;34.50
80577;DHT22;69937;52.420;10.538;2023-07-09T12:34:58;38.70;34.10
80577;DHT22;69937;52.420;10.538;2023-07-09T12:40:00;39.00;34.90
80577;DHT22;69937;52.420;10.538;2023-07-09T12:45:01;39.40;33.00
80577;DHT22;69937;52.420;10.538;2023-07-09T12:50:32;39.80;33.50
80577;DHT22;69937;52.420;10.538;2023-07-09T12:55:39;39.80;33.10
80577;DHT22;69937;52.420;10.538;2023-07-09T13:00:40;39.70;32.90
80577;DHT22;69937;52.420;10.538;2023-07-09T13:05:51;39.50;33.10
80577;DHT22;69937;52.420;10.538;2023-07-09T13:10:53;39.70;33.50
80577;DHT22;69937;52.420;10.538;2023-07-09T13:15:56;39.70;33.50
80577;DHT22;69937;52.420;10.538;2023-07-09T13:21:00;39.40;34.00
80577;DHT22;69937;52.420;10.538;2023-07-09T13:26:01;39.50;33.80
80577;DHT22;69937;52.420;10.538;2023-07-09T13:31:12;39.80;33.20
80577;DHT22;69937;52.420;10.538;2023-07-09T13:36:15;39.80;33.00
80577;DHT22;69937;52.420;10.538;2023-07-09T13:41:18;40.00;33.30
80577;DHT22;69937;52.420;10.538;2023-07-09T13:46:22;39.70;33.50
80577;DHT22;69937;52.420;10.538;2023-07-09T13:51:26;39.70;33.10
80577;DHT22;69937;52.420;10.538;2023-07-09T13:56:26;39.70;33.20
80577;DHT22;69937;52.420;10.538;2023-07-09T14:01:28;39.60;33.20
80577;DHT22;69937;52.420;10.538;2023-07-09T14:06:28;39.80;33.80
80577;DHT22;69937;52.420;10.538;2023-07-09T14:11:29;39.60;33.60
80577;DHT22;69937;52.420;10.538;2023-07-09T14:16:30;39.40;34.40
80577;DHT22;69937;52.420;10.538;2023-07-09T14:21:32;39.30;33.40
80577;DHT22;69937;52.420;10.538;2023-07-09T14:26:32;39.40;33.50
80577;DHT22;69937;52.420;10.538;2023-07-09T14:31:33;39.40;33.60
80577;DHT22;69937;52.420;10.538;2023-07-09T14:36:35;39.00;34.30
80577;DHT22;69937;52.420;10.538;2023-07-09T14:41:35;39.10;33.90
80577;DHT22;69937;52.420;10.538;2023-07-09T14:46:36;38.80;33.80
80577;DHT22;69937;52.420;10.538;2023-07-09T14:51:37;38.60;34.10
80577;DHT22;69937;52.420;10.538;2023-07-09T14:56:37;38.90;34.40
80577;DHT22;69937;52.420;10.538;2023-07-09T15:01:40;38.60;34.30
80577;DHT22;69937;52.420;10.538;2023-07-09T15:06:41;38.40;34.70
80577;DHT22;69937;52.420;10.538;2023-07-09T15:11:41;38.30;34.20
80577;DHT22;69937;52.420;10.538;2023-07-09T15:16:46;38.40;34.40
80577;DHT22;69937;52.420;10.538;2023-07-09T15:21:48;38.20;34.30
80577;DHT22;69937;52.420;10.538;2023-07-09T15:26:53;38.10;34.30
80577;DHT22;69937;52.420;10.538;2023-07-09T15:31:54;37.80;34.80
80577;DHT22;69937;52.420;10.538;2023-07-09T15:36:55;37.50;34.20
80577;DHT22;69937;52.420;10.538;2023-07-09T15:41:55;37.30;35.10
80577;DHT22;69937;52.420;10.538;2023-07-09T15:46:57;37.00;35.70
80577;DHT22;69937;52.420;10.538;2023-07-09T15:51:58;36.90;35.90
80577;DHT22;69937;52.420;10.538;2023-07-09T15:56:58;36.80;36.00
80577;DHT22;69937;52.420;10.538;2023-07-09T16:02:02;36.50;35.40
80577;DHT22;69937;52.420;10.538;2023-07-09T16:07:03;36.30;36.40
80577;DHT22;69937;52.420;10.538;2023-07-09T16:12:04;36.00;36.20
80577;DHT22;69937;52.420;10.538;2023-07-09T16:17:08;35.90;36.60
80577;DHT22;69937;52.420;10.538;2023-07-09T16:22:09;35.70;36.50
80577;DHT22;69937;52.420;10.538;2023-07-09T16:27:15;35.40;37.30
80577;DHT22;69937;52.420;10.538;2023-07-09T16:32:15;35.30;37.90
80577;DHT22;69937;52.420;10.538;2023-07-09T16:37:22;35.10;37.30
80577;DHT22;69937;52.420;10.538;2023-07-09T16:42:23;35.00;38.40
80577;DHT22;69937;52.420;10.538;2023-07-09T16:47:25;34.50;38.60
80577;DHT22;69937;52.420;10.538;2023-07-09T16:52:27;34.40;39.60
80577;DHT22;69937;52.420;10.538;2023-07-09T16:57:30;34.20;40.60
80577;DHT22;69937;52.420;10.538;2023-07-09T17:02:32;34.00;40.50
80577;DHT22;69937;52.420;10.538;2023-07-09T17:07:33;33.80;40.80
80577;DHT22;69937;52.420;10.538;2023-07-09T17:12:34;33.60;41.50
80577;DHT22;69937;52.420;10.538;2023-07-09T17:17:34;33.50;41.30
80577;DHT22;69937;52.420;10.538;2023-07-09T17:22:35;33.50;42.30
80577;DHT22;69937;52.420;10.538;2023-07-09T17:27:35;33.40;41.70
80577;DHT22;69937;52.420;10.538;2023-07-09T17:32:36;33.20;43.20
80577;DHT22;69937;52.420;10.538;2023-07-09T17:37:37;33.00;46.00
80577;DHT22;69937;52.420;10.538;2023-07-09T17:42:38;32.80;45.30
80577;DHT22;69937;52.420;10.538;2023-07-09T17:47:40;32.60;46.30
80577;DHT22;69937;52.420;10.538;2023-07-09T17:52:41;32.40;47.80
80577;DHT22;69937;52.420;10.538;2023-07-09T17:57:44;32.00;49.60
80577;DHT22;69937;52.420;10.538;2023-07-09T18:03:00;31.70;49.00
80577;DHT22;69937;52.420;10.538;2023-07-09T18:08:01;31.40;45.80
80577;DHT22;69937;52.420;10.538;2023-07-09T18:13:05;31.30;46.70
80577;DHT22;69937;52.420;10.538;2023-07-09T18:18:07;31.30;45.10
80577;DHT22;69937;52.420;10.538;2023-07-09T18:23:08;31.30;46.20
80577;DHT22;69937;52.420;10.538;2023-07-09T18:28:20;31.20;49.40
80577;DHT22;69937;52.420;10.538;2023-07-09T18:33:22;30.90;48.80
80577;DHT22;69937;52.420;10.538;2023-07-09T18:38:23;30.70;47.80
80577;DHT22;69937;52.420;10.538;2023-07-09T18:43:23;30.50;51.10
80577;DHT22;69937;52.420;10.538;2023-07-09T18:48:25;30.30;51.50
80577;DHT22;69937;52.420;10.538;2023-07-09T18:53:28;30.00;52.80
80577;DHT22;69937;52.420;10.538;2023-07-09T18:58:30;29.90;52.80
80577;DHT22;69937;52.420;10.538;2023-07-09T19:03:34;29.70;52.00
80577;DHT22;69937;52.420;10.538;2023-07-09T19:08:35;29.50;54.10
80577;DHT22;69937;52.420;10.538;2023-07-09T19:13:36;29.30;54.90
80577;DHT22;69937;52.420;10.538;2023-07-09T19:18:36;28.90;53.90
80577;DHT22;69937;52.420;10.538;2023-07-09T19:23:37;28.60;55.50
80577;DHT22;69937;52.420;10.538;2023-07-09T19:28:37;28.40;56.10
80577;DHT22;69937;52.420;10.538;2023-07-09T19:33:39;28.20;54.80
80577;DHT22;69937;52.420;10.538;2023-07-09T19:38:40;28.10;53.80
80577;DHT22;69937;52.420;10.538;2023-07-09T19:43:41;27.90;54.20
80577;DHT22;69937;52.420;10.538;2023-07-09T19:48:41;27.70;54.60
80577;DHT22;69937;52.420;10.538;2023-07-09T19:53:42;27.50;54.00
80577;DHT22;69937;52.420;10.538;2023-07-09T19:58:43;27.50;52.30
80577;DHT22;69937;52.420;10.538;2023-07-09T20:03:43;27.20;53.10
80577;DHT22;69937;52.420;10.538;2023-07-09T20:08:44;26.80;54.70
80577;DHT22;69937;52.420;10.538;2023-07-09T20:13:46;26.80;54.60
80577;DHT22;69937;52.420;10.538;2023-07-09T20:18:46;26.70;54.70
80577;DHT22;69937;52.420;10.538;2023-07-09T20:23:47;26.60;55.50
80577;DHT22;69937;52.420;10.538;2023-07-09T20:28:47;26.10;56.40
80577;DHT22;69937;52.420;10.538;2023-07-09T20:34:16;26.20;56.40
80577;DHT22;69937;52.420;10.538;2023-07-09T20:39:17;26.00;56.80
80577;DHT22;69937;52.420;10.538;2023-07-09T20:44:21;26.00;56.50
80577;DHT22;69937;52.420;10.538;2023-07-09T20:54:22;25.90;57.00
80577;DHT22;69937;52.420;10.538;2023-07-09T20:59:24;25.80;57.10
80577;DHT22;69937;52.420;10.538;2023-07-09T21:04:25;25.30;58.10
80577;DHT22;69937;52.420;10.538;2023-07-09T21:09:30;25.10;58.70
80577;DHT22;69937;52.420;10.538;2023-07-09T21:14:31;24.80;59.40
80577;DHT22;69937;52.420;10.538;2023-07-09T21:19:34;24.70;59.70
80577;DHT22;69937;52.420;10.538;2023-07-09T21:24:37;24.70;61.40
80577;DHT22;69937;52.420;10.538;2023-07-09T21:29:37;24.20;63.10
80577;DHT22;69937;52.420;10.538;2023-07-09T21:34:38;23.30;65.60
80577;DHT22;69937;52.420;10.538;2023-07-09T21:39:39;23.40;65.90
80577;DHT22;69937;52.420;10.538;2023-07-09T21:44:40;23.30;66.30
80577;DHT22;69937;52.420;10.538;2023-07-09T21:49:42;23.00;67.00
80577;DHT22;69937;52.420;10.538;2023-07-09T21:54:43;23.10;67.60
80577;DHT22;69937;52.420;10.538;2023-07-09T21:59:48;22.80;68.60
80577;DHT22;69937;52.420;10.538;2023-07-09T22:04:49;22.30;69.90
80577;DHT22;69937;52.420;10.538;2023-07-09T22:09:53;22.20;70.60
80577;DHT22;69937;52.420;10.538;2023-07-09T22:14:55;21.90;70.40
80577;DHT22;69937;52.420;10.538;2023-07-09T22:19:58;21.70;71.00
80577;DHT22;69937;52.420;10.538;2023-07-09T22:25:00;21.50;71.90
80577;DHT22;69937;52.420;10.538;2023-07-09T22:30:02;21.70;71.60
80577;DHT22;69937;52.420;10.538;2023-07-09T22:35:08;21.70;71.60
80577;DHT22;69937;52.420;10.538;2023-07-09T22:40:21;21.50;71.60
80577;DHT22;69937;52.420;10.538;2023-07-09T22:45:25;21.50;71.50
80577;DHT22;69937;52.420;10.538;2023-07-09T22:50:30;21.50;71.20
80577;DHT22;69937;52.420;10.538;2023-07-09T23:00:35;21.30;71.70
80577;DHT22;69937;52.420;10.538;2023-07-09T23:05:36;21.10;71.80
80577;DHT22;69937;52.420;10.538;2023-07-09T23:10:36;21.10;72.00
80577;DHT22;69937;52.420;10.538;2023-07-09T23:15:37;21.10;71.60
80577;DHT22;69937;52.420;10.538;2023-07-09T23:20:38;21.10;71.80
80577;DHT22;69937;52.420;10.538;2023-07-09T23:25:40;21.10;71.50
80577;DHT22;69937;52.420;10.538;2023-07-09T23:30:42;21.10;71.70
80577;DHT22;69937;52.420;10.538;2023-07-09T23:35:42;21.00;71.90
80577;DHT22;69937;52.420;10.538;2023-07-09T23:40:45;20.90;72.00
80577;DHT22;69937;52.420;10.538;2023-07-09T23:45:46;20.90;72.20
80577;DHT22;69937;52.420;10.538;2023-07-09T23:50:47;20.90;72.00
80577;DHT22;69937;52.420;10.538;2023-07-09T23:55:47;20.90;72.00
